sensor_id;sensor_type;location;lat;lon;timestamp;temperature;humidity
254;DHT22;590;48.772;8.846;2022-10-31T00:01:18;10.70;99.90
254;DHT22;590;48.772;8.846;2022-10-31T00:03:47;10.70;99.90
254;DHT22;590;48.772;8.846;2022-10-31T00:06:15;10.70;99.90
254;DHT22;590;48.772;8.846;2022-10-31T00:08:44;10.60;99.90
254;DHT22;590;48.772;8.846;2022-10-31T00:11:14;10.50;99.90
254;DHT22;590;48.772;8.846;2022-10-31T00:13:42;10.50;99.90
254;DHT22;590;48.772;8.846;2022-10-31T00:16:14;10.50;99.90
254;DHT22;590;48.772;8.846;2022-10-31T00:18:42;10.50;99.90
254;DHT22;590;48.772;8.846;2022-10-31T00:21:10;10.60;99.90
254;DHT22;590;48.772;8.846;2022-10-31T00:23:38;10.60;99.90
254;DHT22;590;48.772;8.846;2022-10-31T00:26:06;10.60;99.90
254;DHT22;590;48.772;8.846;2022-10-31T00:28:36;10.60;99.90
254;DHT22;590;48.772;8.846;2022-10-31T00:31:05;10.60;99.90
254;DHT22;590;48.772;8.846;2022-10-31T00:33:35;10.60;99.90
254;DHT22;590;48.772;8.846;2022-10-31T00:36:05;10.50;99.90
254;DHT22;590;48.772;8.846;2022-10-31T00:38:33;10.50;99.90
254;DHT22;590;48.772;8.846;2022-10-31T00:41:02;10.50;99.90
254;DHT22;590;48.772;8.846;2022-10-31T00:43:29;10.50;99.90
254;DHT22;590;48.772;8.846;2022-10-31T00:45:59;10.50;99.90
254;DHT22;590;48.772;8.846;2022-10-31T00:48:27;10.40;99.90
254;DHT22;590;48.772;8.846;2022-10-31T00:50:55;10.40;99.90
254;DHT22;590;48.772;8.846;2022-10-31T00:53:23;10.30;99.90
254;DHT22;590;48.772;8.846;2022-10-31T00:55:51;10.30;99.90
254;DHT22;590;48.772;8.846;2022-10-31T00:58:19;10.40;99.90
254;DHT22;590;48.772;8.846;2022-10-31T01:00:47;10.40;99.90
254;DHT22;590;48.772;8.846;2022-10-31T01:03:25;10.40;99.90
254;DHT22;590;48.772;8.846;2022-10-31T01:05:57;10.40;99.90
254;DHT22;590;48.772;8.846;2022-10-31T01:08:26;10.40;99.90
254;DHT22;590;48.772;8.846;2022-10-31T01:11:02;10.40;99.90
254;DHT22;590;48.772;8.846;2022-10-31T01:13:31;10.40;99.90
254;DHT22;590;48.772;8.846;2022-10-31T01:16:00;10.40;99.90
254;DHT22;590;48.772;8.846;2022-10-31T01:18:29;10.40;99.90
254;DHT22;590;48.772;8.846;2022-10-31T01:21:02;10.30;99.90
254;DHT22;590;48.772;8.846;2022-10-31T01:23:31;10.30;99.90
254;DHT22;590;48.772;8.846;2022-10-31T01:26:08;10.30;99.90
254;DHT22;590;48.772;8.846;2022-10-31T01:28:38;10.40;99.90
254;DHT22;590;48.772;8.846;2022-10-31T01:31:08;10.30;99.90
254;DHT22;590;48.772;8.846;2022-10-31T01:33:38;10.30;99.90
254;DHT22;590;48.772;8.846;2022-10-31T01:36:15;10.20;99.90
254;DHT22;590;48.772;8.846;2022-10-31T01:38:43;10.20;99.90
254;DHT22;590;48.772;8.846;2022-10-31T01:41:12;10.20;99.90
254;DHT22;590;48.772;8.846;2022-10-31T01:43:46;10.20;99.90
254;DHT22;590;48.772;8.846;2022-10-31T01:46:16;10.30;99.90
254;DHT22;590;48.772;8.846;2022-10-31T01:48:46;10.20;99.90
254;DHT22;590;48.772;8.846;2022-10-31T01:51:17;10.20;99.90
254;DHT22;590;48.772;8.846;2022-10-31T01:53:48;10.20;99.90
254;DHT22;590;48.772;8.846;2022-10-31T01:56:17;10.20;99.90
254;DHT22;590;48.772;8.846;2022-10-31T01:58:46;10.20;99.90
254;DHT22;590;48.772;8.846;2022-10-31T02:01:16;10.20;99.90
254;DHT22;590;48.772;8.846;2022-10-31T02:03:46;10.20;99.90
254;DHT22;590;48.772;8.846;2022-10-31T02:06:21;10.10;99.90
254;DHT22;590;48.772;8.846;2022-10-31T02:08:55;10.10;99.90
254;DHT22;590;48.772;8.846;2022-10-31T02:11:25;10.00;99.90
254;DHT22;590;48.772;8.846;2022-10-31T02:13:54;10.00;99.90
254;DHT22;590;48.772;8.846;2022-10-31T02:16:22;9.90;99.90
254;DHT22;590;48.772;8.846;2022-10-31T02:18:52;9.90;99.90
254;DHT22;590;48.772;8.846;2022-10-31T02:21:24;9.90;99.90
254;DHT22;590;48.772;8.846;2022-10-31T02:24:21;10.00;99.90
254;DHT22;590;48.772;8.846;2022-10-31T02:26:58;10.00;99.90
254;DHT22;590;48.772;8.846;2022-10-31T02:30:00;10.00;99.90
254;DHT22;590;48.772;8.846;2022-10-31T02:32:41;9.90;99.90
254;DHT22;590;48.772;8.846;2022-10-31T02:35:16;9.90;99.90
254;DHT22;590;48.772;8.846;2022-10-31T02:37:54;9.90;99.90
254;DHT22;590;48.772;8.846;2022-10-31T02:40:27;9.90;99.90
254;DHT22;590;48.772;8.846;2022-10-31T02:43:04;9.80;99.90
254;DHT22;590;48.772;8.846;2022-10-31T02:45:38;9.70;99.90
254;DHT22;590;48.772;8.846;2022-10-31T02:48:12;9.60;99.90
254;DHT22;590;48.772;8.846;2022-10-31T02:50:45;9.60;99.90
254;DHT22;590;48.772;8.846;2022-10-31T02:53:17;9.60;99.90
254;DHT22;590;48.772;8.846;2022-10-31T02:55:58;9.60;99.90
254;DHT22;590;48.772;8.846;2022-10-31T02:58:30;9.60;99.90
254;DHT22;590;48.772;8.846;2022-10-31T03:07:41;9.60;99.90
254;DHT22;590;48.772;8.846;2022-10-31T03:10:17;9.60;99.90
254;DHT22;590;48.772;8.846;2022-10-31T03:12:53;9.60;99.90
254;DHT22;590;48.772;8.846;2022-10-31T03:15:27;9.60;99.90
254;DHT22;590;48.772;8.846;2022-10-31T03:17:59;9.60;99.90
254;DHT22;590;48.772;8.846;2022-10-31T03:20:34;9.70;99.90
254;DHT22;590;48.772;8.846;2022-10-31T03:23:09;9.60;99.90
254;DHT22;590;48.772;8.846;2022-10-31T03:25:39;9.60;99.90
254;DHT22;590;48.772;8.846;2022-10-31T03:28:11;9.60;99.90
254;DHT22;590;48.772;8.846;2022-10-31T03:30:42;9.50;99.90
254;DHT22;590;48.772;8.846;2022-10-31T03:33:16;9.50;99.90
254;DHT22;590;48.772;8.846;2022-10-31T03:35:46;9.40;99.90
254;DHT22;590;48.772;8.846;2022-10-31T03:38:18;9.40;99.90
254;DHT22;590;48.772;8.846;2022-10-31T03:40:49;9.30;99.90
254;DHT22;590;48.772;8.846;2022-10-31T03:43:22;9.30;99.90
254;DHT22;590;48.772;8.846;2022-10-31T03:45:51;9.30;99.90
254;DHT22;590;48.772;8.846;2022-10-31T03:48:20;9.30;99.90
254;DHT22;590;48.772;8.846;2022-10-31T03:50:55;9.30;99.90
254;DHT22;590;48.772;8.846;2022-10-31T03:53:32;9.40;99.90
254;DHT22;590;48.772;8.846;2022-10-31T03:56:02;9.40;99.90
254;DHT22;590;48.772;8.846;2022-10-31T03:58:38;9.40;99.90
254;DHT22;590;48.772;8.846;2022-10-31T04:01:11;9.40;99.90
254;DHT22;590;48.772;8.846;2022-10-31T04:03:42;9.40;99.90
254;DHT22;590;48.772;8.846;2022-10-31T04:06:14;9.30;99.90
254;DHT22;590;48.772;8.846;2022-10-31T04:08:49;9.30;99.90
254;DHT22;590;48.772;8.846;2022-10-31T04:11:21;9.30;99.90
254;DHT22;590;48.772;8.846;2022-10-31T04:13:51;9.30;99.90
254;DHT22;590;48.772;8.846;2022-10-31T04:16:22;9.20;99.90
254;DHT22;590;48.772;8.846;2022-10-31T04:18:50;9.20;99.90
254;DHT22;590;48.772;8.846;2022-10-31T04:21:18;9.20;99.90
254;DHT22;590;48.772;8.846;2022-10-31T04:23:48;9.10;99.90
254;DHT22;590;48.772;8.846;2022-10-31T04:26:16;9.10;99.90
254;DHT22;590;48.772;8.846;2022-10-31T04:28:43;9.10;99.90
254;DHT22;590;48.772;8.846;2022-10-31T04:31:12;9.20;99.90
254;DHT22;590;48.772;8.846;2022-10-31T04:33:40;9.20;99.90
254;DHT22;590;48.772;8.846;2022-10-31T04:36:08;9.20;99.90
254;DHT22;590;48.772;8.846;2022-10-31T04:38:36;9.20;99.90
254;DHT22;590;48.772;8.846;2022-10-31T04:41:06;9.20;99.90
254;DHT22;590;48.772;8.846;2022-10-31T04:43:34;9.20;99.90
254;DHT22;590;48.772;8.846;2022-10-31T04:46:02;9.20;99.90
254;DHT22;590;48.772;8.846;2022-10-31T04:48:30;9.10;99.90
254;DHT22;590;48.772;8.846;2022-10-31T04:50:59;9.10;99.90
254;DHT22;590;48.772;8.846;2022-10-31T04:53:27;9.00;99.90
254;DHT22;590;48.772;8.846;2022-10-31T04:55:57;9.10;99.90
254;DHT22;590;48.772;8.846;2022-10-31T04:58:26;9.10;99.90
254;DHT22;590;48.772;8.846;2022-10-31T05:00:55;9.10;99.90
254;DHT22;590;48.772;8.846;2022-10-31T05:03:23;9.10;99.90
254;DHT22;590;48.772;8.846;2022-10-31T05:05:51;9.10;99.90
254;DHT22;590;48.772;8.846;2022-10-31T05:08:19;9.10;99.90
254;DHT22;590;48.772;8.846;2022-10-31T05:10:47;9.10;99.90
254;DHT22;590;48.772;8.846;2022-10-31T05:13:15;9.20;99.90
254;DHT22;590;48.772;8.846;2022-10-31T05:15:44;9.20;99.90
254;DHT22;590;48.772;8.846;2022-10-31T05:18:12;9.20;99.90
254;DHT22;590;48.772;8.846;2022-10-31T05:20:40;9.20;99.90
254;DHT22;590;48.772;8.846;2022-10-31T05:23:08;9.20;99.90
254;DHT22;590;48.772;8.846;2022-10-31T05:25:36;9.10;99.90
254;DHT22;590;48.772;8.846;2022-10-31T05:28:24;9.10;99.90
254;DHT22;590;48.772;8.846;2022-10-31T05:30:53;9.10;99.90
254;DHT22;590;48.772;8.846;2022-10-31T05:33:21;9.00;99.90
254;DHT22;590;48.772;8.846;2022-10-31T05:35:49;9.00;99.90
254;DHT22;590;48.772;8.846;2022-10-31T05:38:17;9.00;99.90
254;DHT22;590;48.772;8.846;2022-10-31T05:40:45;9.00;99.90
254;DHT22;590;48.772;8.846;2022-10-31T05:43:13;8.90;99.90
254;DHT22;590;48.772;8.846;2022-10-31T05:45:41;8.90;99.90
254;DHT22;590;48.772;8.846;2022-10-31T05:48:11;8.90;99.90
254;DHT22;590;48.772;8.846;2022-10-31T05:50:38;8.90;99.90
254;DHT22;590;48.772;8.846;2022-10-31T05:53:07;8.80;99.90
254;DHT22;590;48.772;8.846;2022-10-31T05:55:35;8.90;99.90
254;DHT22;590;48.772;8.846;2022-10-31T05:58:03;8.80;99.90
254;DHT22;590;48.772;8.846;2022-10-31T06:00:32;8.80;99.90
254;DHT22;590;48.772;8.846;2022-10-31T06:03:03;8.80;99.90
254;DHT22;590;48.772;8.846;2022-10-31T06:05:32;8.90;99.90
254;DHT22;590;48.772;8.846;2022-10-31T06:08:01;8.90;99.90
254;DHT22;590;48.772;8.846;2022-10-31T06:10:29;8.90;99.90
254;DHT22;590;48.772;8.846;2022-10-31T06:12:57;8.90;99.90
254;DHT22;590;48.772;8.846;2022-10-31T06:15:25;8.80;99.90
254;DHT22;590;48.772;8.846;2022-10-31T06:18:02;8.80;99.90
254;DHT22;590;48.772;8.846;2022-10-31T06:20:32;8.80;99.90
254;DHT22;590;48.772;8.846;2022-10-31T06:23:01;8.70;99.90
254;DHT22;590;48.772;8.846;2022-10-31T06:25:30;8.70;99.90
254;DHT22;590;48.772;8.846;2022-10-31T06:27:58;8.70;99.90
254;DHT22;590;48.772;8.846;2022-10-31T06:30:26;8.70;99.90
254;DHT22;590;48.772;8.846;2022-10-31T06:32:54;8.70;99.90
254;DHT22;590;48.772;8.846;2022-10-31T06:35:22;8.70;99.90
254;DHT22;590;48.772;8.846;2022-10-31T06:37:54;8.70;99.90
254;DHT22;590;48.772;8.846;2022-10-31T06:40:22;8.70;99.90
254;DHT22;590;48.772;8.846;2022-10-31T06:42:57;8.80;99.90
254;DHT22;590;48.772;8.846;2022-10-31T06:45:26;8.80;99.90
254;DHT22;590;48.772;8.846;2022-10-31T06:47:54;8.80;99.90
254;DHT22;590;48.772;8.846;2022-10-31T06:50:42;8.80;99.90
254;DHT22;590;48.772;8.846;2022-10-31T06:53:12;8.80;99.90
254;DHT22;590;48.772;8.846;2022-10-31T06:55:41;8.90;99.90
254;DHT22;590;48.772;8.846;2022-10-31T06:58:10;9.00;99.90
254;DHT22;590;48.772;8.846;2022-10-31T07:00:39;9.10;99.90
254;DHT22;590;48.772;8.846;2022-10-31T07:03:10;9.10;99.90
254;DHT22;590;48.772;8.846;2022-10-31T07:05:39;9.10;99.90
254;DHT22;590;48.772;8.846;2022-10-31T07:08:08;9.10;99.90
254;DHT22;590;48.772;8.846;2022-10-31T07:10:40;9.10;99.90
254;DHT22;590;48.772;8.846;2022-10-31T07:13:11;9.20;99.90
254;DHT22;590;48.772;8.846;2022-10-31T07:15:40;9.20;99.90
254;DHT22;590;48.772;8.846;2022-10-31T07:18:11;9.30;99.90
254;DHT22;590;48.772;8.846;2022-10-31T07:20:39;9.30;99.90
254;DHT22;590;48.772;8.846;2022-10-31T07:23:08;9.40;99.90
254;DHT22;590;48.772;8.846;2022-10-31T07:25:38;9.40;99.90
254;DHT22;590;48.772;8.846;2022-10-31T07:28:07;9.50;99.90
254;DHT22;590;48.772;8.846;2022-10-31T07:30:35;9.50;99.90
254;DHT22;590;48.772;8.846;2022-10-31T07:33:03;9.60;99.90
254;DHT22;590;48.772;8.846;2022-10-31T07:35:32;9.70;99.90
254;DHT22;590;48.772;8.846;2022-10-31T07:38:08;9.70;99.90
254;DHT22;590;48.772;8.846;2022-10-31T07:40:38;9.80;99.90
254;DHT22;590;48.772;8.846;2022-10-31T07:43:06;9.90;99.90
254;DHT22;590;48.772;8.846;2022-10-31T07:45:39;9.90;99.90
254;DHT22;590;48.772;8.846;2022-10-31T07:48:07;10.00;99.90
254;DHT22;590;48.772;8.846;2022-10-31T07:50:35;10.10;99.90
254;DHT22;590;48.772;8.846;2022-10-31T07:53:06;10.10;99.90
254;DHT22;590;48.772;8.846;2022-10-31T07:55:35;10.20;99.90
254;DHT22;590;48.772;8.846;2022-10-31T07:58:06;10.30;99.90
254;DHT22;590;48.772;8.846;2022-10-31T08:00:36;10.40;99.90
254;DHT22;590;48.772;8.846;2022-10-31T08:03:05;10.50;99.90
254;DHT22;590;48.772;8.846;2022-10-31T08:05:34;10.60;99.90
254;DHT22;590;48.772;8.846;2022-10-31T08:08:03;10.70;99.90
254;DHT22;590;48.772;8.846;2022-10-31T08:10:33;10.80;99.90
254;DHT22;590;48.772;8.846;2022-10-31T08:13:02;10.90;99.90
254;DHT22;590;48.772;8.846;2022-10-31T08:15:33;11.00;99.90
254;DHT22;590;48.772;8.846;2022-10-31T08:18:03;11.10;99.90
254;DHT22;590;48.772;8.846;2022-10-31T08:20:31;11.20;99.90
254;DHT22;590;48.772;8.846;2022-10-31T08:23:02;11.30;99.90
254;DHT22;590;48.772;8.846;2022-10-31T08:25:32;11.40;99.90
254;DHT22;590;48.772;8.846;2022-10-31T08:28:05;11.60;99.90
254;DHT22;590;48.772;8.846;2022-10-31T08:30:35;11.70;99.90
254;DHT22;590;48.772;8.846;2022-10-31T08:33:05;11.80;99.90
254;DHT22;590;48.772;8.846;2022-10-31T08:35:33;11.90;99.90
254;DHT22;590;48.772;8.846;2022-10-31T08:38:02;12.00;99.90
254;DHT22;590;48.772;8.846;2022-10-31T08:40:31;12.20;99.90
254;DHT22;590;48.772;8.846;2022-10-31T08:43:01;12.30;99.90
254;DHT22;590;48.772;8.846;2022-10-31T08:45:31;12.40;99.90
254;DHT22;590;48.772;8.846;2022-10-31T08:48:02;12.50;99.90
254;DHT22;590;48.772;8.846;2022-10-31T08:50:32;12.60;99.90
254;DHT22;590;48.772;8.846;2022-10-31T08:53:01;12.60;99.90
254;DHT22;590;48.772;8.846;2022-10-31T08:55:33;12.70;99.90
254;DHT22;590;48.772;8.846;2022-10-31T08:58:14;12.80;99.90
254;DHT22;590;48.772;8.846;2022-10-31T09:00:43;12.90;99.90
254;DHT22;590;48.772;8.846;2022-10-31T09:03:15;12.90;99.90
254;DHT22;590;48.772;8.846;2022-10-31T09:05:44;13.00;99.70
254;DHT22;590;48.772;8.846;2022-10-31T09:08:12;13.00;99.50
254;DHT22;590;48.772;8.846;2022-10-31T09:10:43;13.10;98.70
254;DHT22;590;48.772;8.846;2022-10-31T09:13:13;13.20;98.70
254;DHT22;590;48.772;8.846;2022-10-31T09:15:43;13.30;98.60
254;DHT22;590;48.772;8.846;2022-10-31T09:18:15;13.40;98.20
254;DHT22;590;48.772;8.846;2022-10-31T09:20:44;13.60;97.80
254;DHT22;590;48.772;8.846;2022-10-31T09:23:30;13.60;95.30
254;DHT22;590;48.772;8.846;2022-10-31T09:26:06;13.60;95.00
254;DHT22;590;48.772;8.846;2022-10-31T09:28:38;13.80;95.20
254;DHT22;590;48.772;8.846;2022-10-31T09:32:07;13.80;94.80
254;DHT22;590;48.772;8.846;2022-10-31T09:35:03;14.00;94.80
254;DHT22;590;48.772;8.846;2022-10-31T09:37:32;14.00;93.70
254;DHT22;590;48.772;8.846;2022-10-31T09:40:32;14.10;93.90
254;DHT22;590;48.772;8.846;2022-10-31T09:43:10;14.30;93.60
254;DHT22;590;48.772;8.846;2022-10-31T09:45:47;14.40;93.70
254;DHT22;590;48.772;8.846;2022-10-31T09:48:42;14.50;93.10
254;DHT22;590;48.772;8.846;2022-10-31T09:51:17;14.70;92.40
254;DHT22;590;48.772;8.846;2022-10-31T09:53:50;14.80;92.30
254;DHT22;590;48.772;8.846;2022-10-31T09:56:30;14.90;91.60
254;DHT22;590;48.772;8.846;2022-10-31T09:59:29;15.00;90.90
254;DHT22;590;48.772;8.846;2022-10-31T10:02:04;15.20;90.90
254;DHT22;590;48.772;8.846;2022-10-31T10:04:41;15.30;90.40
254;DHT22;590;48.772;8.846;2022-10-31T10:07:16;15.50;88.30
254;DHT22;590;48.772;8.846;2022-10-31T10:09:46;15.60;87.30
254;DHT22;590;48.772;8.846;2022-10-31T10:12:19;15.80;85.80
254;DHT22;590;48.772;8.846;2022-10-31T10:15:00;15.90;84.70
254;DHT22;590;48.772;8.846;2022-10-31T10:17:43;16.00;83.40
254;DHT22;590;48.772;8.846;2022-10-31T10:20:22;16.20;83.70
254;DHT22;590;48.772;8.846;2022-10-31T10:23:04;16.30;83.90
254;DHT22;590;48.772;8.846;2022-10-31T10:25:37;16.50;83.30
254;DHT22;590;48.772;8.846;2022-10-31T10:28:14;16.60;82.10
254;DHT22;590;48.772;8.846;2022-10-31T10:30:47;16.70;81.40
254;DHT22;590;48.772;8.846;2022-10-31T10:33:19;16.80;79.60
254;DHT22;590;48.772;8.846;2022-10-31T10:35:52;17.00;79.20
254;DHT22;590;48.772;8.846;2022-10-31T10:38:27;17.10;78.80
254;DHT22;590;48.772;8.846;2022-10-31T10:40:59;17.10;77.60
254;DHT22;590;48.772;8.846;2022-10-31T10:43:33;17.20;77.70
254;DHT22;590;48.772;8.846;2022-10-31T10:46:14;17.30;77.30
254;DHT22;590;48.772;8.846;2022-10-31T10:51:55;17.40;76.60
254;DHT22;590;48.772;8.846;2022-10-31T10:54:59;17.50;74.00
254;DHT22;590;48.772;8.846;2022-10-31T10:57:44;17.70;72.30
254;DHT22;590;48.772;8.846;2022-10-31T11:00:19;17.80;71.40
254;DHT22;590;48.772;8.846;2022-10-31T11:02:47;17.90;71.60
254;DHT22;590;48.772;8.846;2022-10-31T11:05:23;17.90;72.30
254;DHT22;590;48.772;8.846;2022-10-31T11:07:51;18.00;72.70
254;DHT22;590;48.772;8.846;2022-10-31T11:10:21;18.20;72.70
254;DHT22;590;48.772;8.846;2022-10-31T11:13:17;18.20;72.30
254;DHT22;590;48.772;8.846;2022-10-31T11:15:56;18.30;71.90
254;DHT22;590;48.772;8.846;2022-10-31T11:18:26;18.30;70.70
254;DHT22;590;48.772;8.846;2022-10-31T11:20:56;18.40;70.50
254;DHT22;590;48.772;8.846;2022-10-31T11:23:26;18.40;70.10
254;DHT22;590;48.772;8.846;2022-10-31T11:25:58;18.50;70.40
254;DHT22;590;48.772;8.846;2022-10-31T11:28:27;18.50;70.10
254;DHT22;590;48.772;8.846;2022-10-31T11:30:58;18.60;68.50
254;DHT22;590;48.772;8.846;2022-10-31T11:33:30;18.60;67.40
254;DHT22;590;48.772;8.846;2022-10-31T11:36:00;18.60;64.90
254;DHT22;590;48.772;8.846;2022-10-31T11:38:33;18.50;64.40
254;DHT22;590;48.772;8.846;2022-10-31T11:41:11;18.60;64.90
254;DHT22;590;48.772;8.846;2022-10-31T11:43:47;18.70;64.60
254;DHT22;590;48.772;8.846;2022-10-31T11:46:20;18.80;63.30
254;DHT22;590;48.772;8.846;2022-10-31T11:48:51;18.70;63.10
254;DHT22;590;48.772;8.846;2022-10-31T11:51:21;18.80;63.20
254;DHT22;590;48.772;8.846;2022-10-31T11:53:52;18.80;63.40
254;DHT22;590;48.772;8.846;2022-10-31T11:56:27;18.90;62.70
254;DHT22;590;48.772;8.846;2022-10-31T11:58:56;18.70;61.30
254;DHT22;590;48.772;8.846;2022-10-31T12:01:25;18.80;62.30
254;DHT22;590;48.772;8.846;2022-10-31T12:04:00;18.80;62.80
254;DHT22;590;48.772;8.846;2022-10-31T12:06:33;18.90;63.40
254;DHT22;590;48.772;8.846;2022-10-31T12:09:01;19.00;62.10
254;DHT22;590;48.772;8.846;2022-10-31T12:11:42;19.00;62.50
254;DHT22;590;48.772;8.846;2022-10-31T12:14:27;19.10;61.70
254;DHT22;590;48.772;8.846;2022-10-31T12:17:02;19.10;61.20
254;DHT22;590;48.772;8.846;2022-10-31T12:19:38;19.10;61.00
254;DHT22;590;48.772;8.846;2022-10-31T12:22:16;19.20;61.00
254;DHT22;590;48.772;8.846;2022-10-31T12:24:59;19.10;61.20
254;DHT22;590;48.772;8.846;2022-10-31T12:27:43;19.20;61.20
254;DHT22;590;48.772;8.846;2022-10-31T12:30:19;19.20;61.30
254;DHT22;590;48.772;8.846;2022-10-31T12:33:20;19.20;62.20
254;DHT22;590;48.772;8.846;2022-10-31T12:35:58;19.20;62.90
254;DHT22;590;48.772;8.846;2022-10-31T12:38:46;19.20;63.40
254;DHT22;590;48.772;8.846;2022-10-31T12:41:25;19.30;63.20
254;DHT22;590;48.772;8.846;2022-10-31T12:44:05;19.30;62.60
254;DHT22;590;48.772;8.846;2022-10-31T12:46:55;19.20;61.60
254;DHT22;590;48.772;8.846;2022-10-31T12:49:36;19.20;61.40
254;DHT22;590;48.772;8.846;2022-10-31T12:52:18;19.10;61.80
254;DHT22;590;48.772;8.846;2022-10-31T12:54:59;19.10;62.40
254;DHT22;590;48.772;8.846;2022-10-31T12:57:35;19.10;63.20
254;DHT22;590;48.772;8.846;2022-10-31T13:00:11;19.10;63.90
254;DHT22;590;48.772;8.846;2022-10-31T13:02:44;19.10;64.00
254;DHT22;590;48.772;8.846;2022-10-31T13:05:27;19.10;63.80
254;DHT22;590;48.772;8.846;2022-10-31T13:08:04;19.00;64.50
254;DHT22;590;48.772;8.846;2022-10-31T13:10:37;18.90;65.00
254;DHT22;590;48.772;8.846;2022-10-31T13:13:13;18.90;65.10
254;DHT22;590;48.772;8.846;2022-10-31T13:15:48;18.90;64.20
254;DHT22;590;48.772;8.846;2022-10-31T13:18:23;18.80;64.70
254;DHT22;590;48.772;8.846;2022-10-31T13:20:53;18.80;65.30
254;DHT22;590;48.772;8.846;2022-10-31T13:23:27;18.90;65.80
254;DHT22;590;48.772;8.846;2022-10-31T13:26:23;19.10;65.80
254;DHT22;590;48.772;8.846;2022-10-31T13:28:57;19.20;64.40
254;DHT22;590;48.772;8.846;2022-10-31T13:31:28;19.20;64.10
254;DHT22;590;48.772;8.846;2022-10-31T13:33:59;19.30;63.50
254;DHT22;590;48.772;8.846;2022-10-31T13:36:35;19.30;63.50
254;DHT22;590;48.772;8.846;2022-10-31T13:39:23;19.40;62.60
254;DHT22;590;48.772;8.846;2022-10-31T13:41:57;19.40;62.90
254;DHT22;590;48.772;8.846;2022-10-31T13:44:28;19.50;62.40
254;DHT22;590;48.772;8.846;2022-10-31T13:47:23;19.50;62.90
254;DHT22;590;48.772;8.846;2022-10-31T13:49:51;19.50;62.30
254;DHT22;590;48.772;8.846;2022-10-31T13:52:30;19.40;63.10
254;DHT22;590;48.772;8.846;2022-10-31T13:54:58;19.30;63.70
254;DHT22;590;48.772;8.846;2022-10-31T13:57:31;19.30;63.90
254;DHT22;590;48.772;8.846;2022-10-31T14:00:03;19.30;63.80
254;DHT22;590;48.772;8.846;2022-10-31T14:02:35;19.20;62.40
254;DHT22;590;48.772;8.846;2022-10-31T14:05:06;19.10;62.70
254;DHT22;590;48.772;8.846;2022-10-31T14:07:45;19.10;62.00
254;DHT22;590;48.772;8.846;2022-10-31T14:10:22;19.00;62.40
254;DHT22;590;48.772;8.846;2022-10-31T14:12:54;19.00;62.90
254;DHT22;590;48.772;8.846;2022-10-31T14:15:30;19.10;63.10
254;DHT22;590;48.772;8.846;2022-10-31T14:18:01;19.10;64.30
254;DHT22;590;48.772;8.846;2022-10-31T14:20:38;19.10;65.30
254;DHT22;590;48.772;8.846;2022-10-31T14:23:30;19.20;65.50
254;DHT22;590;48.772;8.846;2022-10-31T14:26:17;19.20;65.40
254;DHT22;590;48.772;8.846;2022-10-31T14:28:46;19.20;64.00
254;DHT22;590;48.772;8.846;2022-10-31T14:31:30;19.20;62.80
254;DHT22;590;48.772;8.846;2022-10-31T14:34:18;19.20;63.00
254;DHT22;590;48.772;8.846;2022-10-31T14:39:55;19.30;63.10
254;DHT22;590;48.772;8.846;2022-10-31T14:42:36;19.30;63.90
254;DHT22;590;48.772;8.846;2022-10-31T14:45:18;19.40;64.40
254;DHT22;590;48.772;8.846;2022-10-31T14:48:05;19.40;64.10
254;DHT22;590;48.772;8.846;2022-10-31T14:50:43;19.40;63.40
254;DHT22;590;48.772;8.846;2022-10-31T14:53:17;19.30;62.90
254;DHT22;590;48.772;8.846;2022-10-31T14:55:50;19.40;62.80
254;DHT22;590;48.772;8.846;2022-10-31T14:58:22;19.30;63.30
254;DHT22;590;48.772;8.846;2022-10-31T15:00:53;19.20;63.70
254;DHT22;590;48.772;8.846;2022-10-31T15:03:26;19.20;64.40
254;DHT22;590;48.772;8.846;2022-10-31T15:05:59;19.10;65.30
254;DHT22;590;48.772;8.846;2022-10-31T15:08:33;19.00;65.90
254;DHT22;590;48.772;8.846;2022-10-31T15:11:13;18.90;67.10
254;DHT22;590;48.772;8.846;2022-10-31T15:13:43;18.80;68.40
254;DHT22;590;48.772;8.846;2022-10-31T15:16:14;18.80;69.50
254;DHT22;590;48.772;8.846;2022-10-31T15:18:52;18.70;70.60
254;DHT22;590;48.772;8.846;2022-10-31T15:21:24;18.60;72.10
254;DHT22;590;48.772;8.846;2022-10-31T15:23:54;18.70;75.00
254;DHT22;590;48.772;8.846;2022-10-31T15:26:25;18.60;75.70
254;DHT22;590;48.772;8.846;2022-10-31T15:28:58;18.50;77.60
254;DHT22;590;48.772;8.846;2022-10-31T15:31:27;18.40;79.80
254;DHT22;590;48.772;8.846;2022-10-31T15:33:59;18.30;80.80
254;DHT22;590;48.772;8.846;2022-10-31T15:36:29;18.30;81.60
254;DHT22;590;48.772;8.846;2022-10-31T15:39:03;18.20;82.80
254;DHT22;590;48.772;8.846;2022-10-31T15:41:33;18.20;82.60
254;DHT22;590;48.772;8.846;2022-10-31T15:44:07;18.10;83.50
254;DHT22;590;48.772;8.846;2022-10-31T15:46:39;18.10;84.10
254;DHT22;590;48.772;8.846;2022-10-31T15:49:28;18.00;84.10
254;DHT22;590;48.772;8.846;2022-10-31T15:52:03;17.90;85.50
254;DHT22;590;48.772;8.846;2022-10-31T15:54:33;17.90;86.30
254;DHT22;590;48.772;8.846;2022-10-31T15:57:02;17.90;87.30
254;DHT22;590;48.772;8.846;2022-10-31T15:59:31;17.80;87.90
254;DHT22;590;48.772;8.846;2022-10-31T16:02:00;17.70;89.50
254;DHT22;590;48.772;8.846;2022-10-31T16:04:30;17.60;90.80
254;DHT22;590;48.772;8.846;2022-10-31T16:07:11;17.50;90.90
254;DHT22;590;48.772;8.846;2022-10-31T16:09:52;17.40;90.80
254;DHT22;590;48.772;8.846;2022-10-31T16:12:21;17.30;90.80
254;DHT22;590;48.772;8.846;2022-10-31T16:14:51;17.20;91.10
254;DHT22;590;48.772;8.846;2022-10-31T16:17:22;17.20;91.40
254;DHT22;590;48.772;8.846;2022-10-31T16:19:55;17.10;91.40
254;DHT22;590;48.772;8.846;2022-10-31T16:22:27;17.20;91.40
254;DHT22;590;48.772;8.846;2022-10-31T16:25:00;17.00;91.00
254;DHT22;590;48.772;8.846;2022-10-31T16:27:31;17.00;90.90
254;DHT22;590;48.772;8.846;2022-10-31T16:30:01;16.80;90.40
254;DHT22;590;48.772;8.846;2022-10-31T16:32:33;16.60;90.30
254;DHT22;590;48.772;8.846;2022-10-31T16:35:19;16.50;90.60
254;DHT22;590;48.772;8.846;2022-10-31T16:37:52;16.40;90.50
254;DHT22;590;48.772;8.846;2022-10-31T16:40:20;16.20;91.00
254;DHT22;590;48.772;8.846;2022-10-31T16:42:48;16.10;92.10
254;DHT22;590;48.772;8.846;2022-10-31T16:45:19;16.10;93.60
254;DHT22;590;48.772;8.846;2022-10-31T16:47:48;16.00;94.40
254;DHT22;590;48.772;8.846;2022-10-31T16:50:19;15.90;94.40
254;DHT22;590;48.772;8.846;2022-10-31T16:52:47;15.80;94.60
254;DHT22;590;48.772;8.846;2022-10-31T16:55:42;15.70;94.40
254;DHT22;590;48.772;8.846;2022-10-31T16:58:17;15.70;94.70
254;DHT22;590;48.772;8.846;2022-10-31T17:00:45;15.60;95.10
254;DHT22;590;48.772;8.846;2022-10-31T17:03:13;15.50;95.90
254;DHT22;590;48.772;8.846;2022-10-31T17:05:41;15.50;96.50
254;DHT22;590;48.772;8.846;2022-10-31T17:08:09;15.40;96.90
254;DHT22;590;48.772;8.846;2022-10-31T17:10:40;15.40;97.30
254;DHT22;590;48.772;8.846;2022-10-31T17:13:14;15.40;97.50
254;DHT22;590;48.772;8.846;2022-10-31T17:15:46;15.40;98.20
254;DHT22;590;48.772;8.846;2022-10-31T17:18:16;15.30;98.40
254;DHT22;590;48.772;8.846;2022-10-31T17:20:55;15.20;98.80
254;DHT22;590;48.772;8.846;2022-10-31T17:23:23;15.10;99.20
254;DHT22;590;48.772;8.846;2022-10-31T17:25:53;15.00;99.90
254;DHT22;590;48.772;8.846;2022-10-31T17:28:21;15.00;99.90
254;DHT22;590;48.772;8.846;2022-10-31T17:30:49;15.00;99.90